Terminal Aerodrome Forecast
Issued by NWS

Home | Current Version | Previous Version | Text Only | Print | Product List | Glossary On
Versions: 1 2 3 4 5 6 7 8 9 10 11 12 13 14 15 16 17 18 19 20 21 22 23 24 25 26 27 28 29 30 31 32 33 34
000
FTAK31 PAFA 310526
TAFAUN
TAF
PAUN 310526Z 3106/0106 30007KT P6SM BKN200
     FM311400 21007KT P6SM -RA SCT015 OVC050
     FM312200 22009KT P6SM -RA OVC015
     FM010300 25008KT 5SM -RA BR OVC007=

USA.gov is the U.S. government's official web portal to all federal, state and local government web resources and services.